< < Back
Terminal Aerodrome Forecast


Current Version              Previous Versions:   1  2  3  4  5  6  7  8  9  

Terminal Aerodrome Forecast

729
FTUS42 KCHS 281100
TAFSAV
TAF
KSAV 281123Z 2812/2912 VRB03KT P6SM FEW300
     FM281900 14007KT P6SM FEW300
     FM290100 18002KT P6SM SKC=

Latest METAR

663
SAUS80 KWBC 281500 RRB
MTRSAV
METAR KSAV 281453Z VRB04KT 10SM SCT140 29/18 A3006 RMK AO2 SLP178
T02940183 51003


USA.gov is the U.S. government's official web portal to all federal, state and local government web resources and services.